sensor_id;sensor_type;location;lat;lon;timestamp;pressure;altitude;pressure_sealevel;temperature;humidity
69570;BME280;56781;42.292;23.146;2022-10-26T00:00:51;95979.94;;;8.06;86.42
69570;BME280;56781;42.292;23.146;2022-10-26T00:03:18;96016.94;;;8.23;85.29
69570;BME280;56781;42.292;23.146;2022-10-26T00:05:46;95986.31;;;8.00;85.78
69570;BME280;56781;42.292;23.146;2022-10-26T00:08:13;96024.44;;;8.06;85.67
69570;BME280;56781;42.292;23.146;2022-10-26T00:10:40;96044.16;;;8.20;86.30
69570;BME280;56781;42.292;23.146;2022-10-26T00:13:09;96006.88;;;7.84;86.49
69570;BME280;56781;42.292;23.146;2022-10-26T00:15:41;96005.09;;;7.33;88.88
69570;BME280;56781;42.292;23.146;2022-10-26T00:18:08;96001.09;;;7.21;90.63
69570;BME280;56781;42.292;23.146;2022-10-26T00:20:36;95986.19;;;7.15;91.92
69570;BME280;56781;42.292;23.146;2022-10-26T00:23:03;96015.47;;;7.66;90.57
69570;BME280;56781;42.292;23.146;2022-10-26T00:25:30;96049.28;;;7.96;89.25
69570;BME280;56781;42.292;23.146;2022-10-26T00:27:57;95986.72;;;7.52;89.13
69570;BME280;56781;42.292;23.146;2022-10-26T00:30:24;95998.41;;;7.67;89.61
69570;BME280;56781;42.292;23.146;2022-10-26T00:32:51;96067.66;;;7.92;89.55
69570;BME280;56781;42.292;23.146;2022-10-26T00:35:18;96005.06;;;7.59;89.93
69570;BME280;56781;42.292;23.146;2022-10-26T00:38:06;96035.69;;;7.87;89.98
69570;BME280;56781;42.292;23.146;2022-10-26T00:40:33;96063.94;;;7.98;89.49
69570;BME280;56781;42.292;23.146;2022-10-26T00:43:00;96009.34;;;7.50;90.21
69570;BME280;56781;42.292;23.146;2022-10-26T00:45:28;96024.00;;;7.27;88.88
69570;BME280;56781;42.292;23.146;2022-10-26T00:48:02;96059.69;;;7.46;90.00
69570;BME280;56781;42.292;23.146;2022-10-26T00:50:39;96061.81;;;7.29;92.27
69570;BME280;56781;42.292;23.146;2022-10-26T00:53:09;95996.53;;;6.65;93.64
69570;BME280;56781;42.292;23.146;2022-10-26T00:55:40;96020.75;;;6.89;93.05
69570;BME280;56781;42.292;23.146;2022-10-26T00:58:10;95995.25;;;7.03;92.17
69570;BME280;56781;42.292;23.146;2022-10-26T01:00:39;96002.16;;;7.15;92.76
69570;BME280;56781;42.292;23.146;2022-10-26T01:03:07;96020.28;;;7.33;91.97
69570;BME280;56781;42.292;23.146;2022-10-26T01:05:39;95999.25;;;7.37;91.61
69570;BME280;56781;42.292;23.146;2022-10-26T01:08:08;95947.59;;;7.22;91.18
69570;BME280;56781;42.292;23.146;2022-10-26T01:10:36;96063.91;;;8.04;91.34
69570;BME280;56781;42.292;23.146;2022-10-26T01:13:05;96015.47;;;7.30;88.38
69570;BME280;56781;42.292;23.146;2022-10-26T01:18:29;96007.50;;;7.20;90.45
69570;BME280;56781;42.292;23.146;2022-10-26T01:21:40;96060.47;;;7.67;90.76
69570;BME280;56781;42.292;23.146;2022-10-26T01:26:52;96013.88;;;7.49;91.02
69570;BME280;56781;42.292;23.146;2022-10-26T01:33:19;96073.53;;;7.89;89.60
69570;BME280;56781;42.292;23.146;2022-10-26T01:35:17;96004.56;;;7.47;89.38
69570;BME280;56781;42.292;23.146;2022-10-26T01:38:01;96065.00;;;7.87;90.07
69570;BME280;56781;42.292;23.146;2022-10-26T01:40:35;96069.56;;;7.71;88.76
69570;BME280;56781;42.292;23.146;2022-10-26T01:43:06;95991.00;;;7.18;89.71
69570;BME280;56781;42.292;23.146;2022-10-26T01:45:36;96001.09;;;7.10;87.98
69570;BME280;56781;42.292;23.146;2022-10-26T01:48:05;95995.50;;;6.97;90.66
69570;BME280;56781;42.292;23.146;2022-10-26T01:50:34;95998.97;;;6.92;90.92
69570;BME280;56781;42.292;23.146;2022-10-26T01:53:02;96050.09;;;7.15;91.70
69570;BME280;56781;42.292;23.146;2022-10-26T01:58:16;96033.03;;;7.05;90.51
69570;BME280;56781;42.292;23.146;2022-10-26T02:01:07;95996.28;;;6.87;89.97
69570;BME280;56781;42.292;23.146;2022-10-26T02:06:23;96033.63;;;6.29;92.55
69570;BME280;56781;42.292;23.146;2022-10-26T02:11:38;96008.97;;;6.44;92.29
69570;BME280;56781;42.292;23.146;2022-10-26T02:14:22;96024.44;;;6.62;90.82
69570;BME280;56781;42.292;23.146;2022-10-26T02:16:54;96067.66;;;7.00;90.57
69570;BME280;56781;42.292;23.146;2022-10-26T02:19:33;95970.28;;;6.16;90.65
69570;BME280;56781;42.292;23.146;2022-10-26T02:22:12;96028.09;;;6.41;91.90
69570;BME280;56781;42.292;23.146;2022-10-26T02:24:41;96016.34;;;6.32;90.67
69570;BME280;56781;42.292;23.146;2022-10-26T02:27:14;95994.53;;;6.25;89.13
69570;BME280;56781;42.292;23.146;2022-10-26T02:29:43;96068.53;;;6.48;89.97
69570;BME280;56781;42.292;23.146;2022-10-26T02:32:11;96009.84;;;6.07;90.91
69570;BME280;56781;42.292;23.146;2022-10-26T02:34:43;95994.56;;;5.82;93.67
69570;BME280;56781;42.292;23.146;2022-10-26T02:37:12;96010.94;;;5.69;93.86
69570;BME280;56781;42.292;23.146;2022-10-26T02:39:42;96011.81;;;5.80;93.40
69570;BME280;56781;42.292;23.146;2022-10-26T02:42:12;96002.34;;;5.94;94.50
69570;BME280;56781;42.292;23.146;2022-10-26T02:44:47;96016.03;;;5.70;94.24
69570;BME280;56781;42.292;23.146;2022-10-26T02:47:18;96002.03;;;5.85;94.97
69570;BME280;56781;42.292;23.146;2022-10-26T02:49:46;96071.78;;;6.03;94.78
69570;BME280;56781;42.292;23.146;2022-10-26T02:52:34;96003.53;;;5.71;95.77
69570;BME280;56781;42.292;23.146;2022-10-26T02:55:13;95995.75;;;5.54;94.59
69570;BME280;56781;42.292;23.146;2022-10-26T02:58:03;96012.88;;;5.78;95.02
69570;BME280;56781;42.292;23.146;2022-10-26T03:00:32;96014.59;;;5.95;94.68
69570;BME280;56781;42.292;23.146;2022-10-26T03:02:59;96059.41;;;6.29;95.07
69570;BME280;56781;42.292;23.146;2022-10-26T03:05:31;96070.31;;;6.32;94.66
69570;BME280;56781;42.292;23.146;2022-10-26T03:07:59;96001.75;;;5.82;95.19
69570;BME280;56781;42.292;23.146;2022-10-26T03:10:26;96077.81;;;6.35;96.09
69570;BME280;56781;42.292;23.146;2022-10-26T03:12:53;96069.56;;;6.42;95.29
69570;BME280;56781;42.292;23.146;2022-10-26T03:15:20;96012.31;;;6.14;94.48
69570;BME280;56781;42.292;23.146;2022-10-26T03:17:47;96039.28;;;6.48;94.12
69570;BME280;56781;42.292;23.146;2022-10-26T03:20:15;96031.59;;;6.52;94.22
69570;BME280;56781;42.292;23.146;2022-10-26T03:22:42;96054.81;;;6.77;95.04
69570;BME280;56781;42.292;23.146;2022-10-26T03:25:09;96030.78;;;6.51;92.39
69570;BME280;56781;42.292;23.146;2022-10-26T03:27:36;96055.03;;;6.07;91.47
69570;BME280;56781;42.292;23.146;2022-10-26T03:30:04;96088.56;;;6.08;91.42
69570;BME280;56781;42.292;23.146;2022-10-26T03:32:31;96043.53;;;5.54;92.30
69570;BME280;56781;42.292;23.146;2022-10-26T03:34:58;96032.34;;;5.52;93.53
69570;BME280;56781;42.292;23.146;2022-10-26T03:37:25;96040.94;;;5.64;93.86
69570;BME280;56781;42.292;23.146;2022-10-26T03:39:52;96036.16;;;5.66;93.05
69570;BME280;56781;42.292;23.146;2022-10-26T03:42:19;96038.88;;;5.71;93.83
69570;BME280;56781;42.292;23.146;2022-10-26T03:44:46;96060.50;;;5.53;95.20
69570;BME280;56781;42.292;23.146;2022-10-26T03:47:13;96047.78;;;5.23;96.72
69570;BME280;56781;42.292;23.146;2022-10-26T03:49:41;96059.69;;;5.20;97.41
69570;BME280;56781;42.292;23.146;2022-10-26T03:52:08;96108.38;;;5.63;98.44
69570;BME280;56781;42.292;23.146;2022-10-26T03:54:35;96048.75;;;5.44;97.91
69570;BME280;56781;42.292;23.146;2022-10-26T03:57:02;96081.38;;;5.71;95.53
69570;BME280;56781;42.292;23.146;2022-10-26T03:59:29;96104.94;;;5.63;97.15
69570;BME280;56781;42.292;23.146;2022-10-26T04:01:56;96105.31;;;5.76;95.73
69570;BME280;56781;42.292;23.146;2022-10-26T04:04:23;96099.63;;;5.95;96.02
69570;BME280;56781;42.292;23.146;2022-10-26T04:06:51;96053.78;;;5.77;95.74
69570;BME280;56781;42.292;23.146;2022-10-26T04:09:18;96018.41;;;5.72;95.33
69570;BME280;56781;42.292;23.146;2022-10-26T04:11:45;96053.28;;;5.86;95.39
69570;BME280;56781;42.292;23.146;2022-10-26T04:14:12;96050.06;;;5.78;94.34
69570;BME280;56781;42.292;23.146;2022-10-26T04:16:39;96056.25;;;5.89;93.20
69570;BME280;56781;42.292;23.146;2022-10-26T04:19:06;96117.03;;;6.18;92.91
69570;BME280;56781;42.292;23.146;2022-10-26T04:21:33;96054.84;;;5.76;93.56
69570;BME280;56781;42.292;23.146;2022-10-26T04:24:01;96095.94;;;6.01;93.76
69570;BME280;56781;42.292;23.146;2022-10-26T04:26:28;96059.41;;;5.81;93.44
69570;BME280;56781;42.292;23.146;2022-10-26T04:28:55;96078.53;;;5.88;93.35
69570;BME280;56781;42.292;23.146;2022-10-26T04:31:22;96063.63;;;5.82;93.64
69570;BME280;56781;42.292;23.146;2022-10-26T04:33:49;96085.75;;;5.93;93.21
69570;BME280;56781;42.292;23.146;2022-10-26T04:36:16;96065.66;;;5.65;92.87
69570;BME280;56781;42.292;23.146;2022-10-26T04:38:43;96057.50;;;5.12;93.78
69570;BME280;56781;42.292;23.146;2022-10-26T04:41:10;96051.81;;;4.71;95.85
69570;BME280;56781;42.292;23.146;2022-10-26T04:43:37;96058.41;;;4.69;98.11
69570;BME280;56781;42.292;23.146;2022-10-26T04:46:04;96095.84;;;5.26;97.22
69570;BME280;56781;42.292;23.146;2022-10-26T04:48:31;96094.88;;;5.32;96.23
69570;BME280;56781;42.292;23.146;2022-10-26T04:50:59;96081.94;;;5.41;95.30
69570;BME280;56781;42.292;23.146;2022-10-26T04:53:26;96059.88;;;5.41;94.82
69570;BME280;56781;42.292;23.146;2022-10-26T04:55:58;96066.94;;;4.98;96.56
69570;BME280;56781;42.292;23.146;2022-10-26T04:58:26;96136.31;;;5.39;98.45
69570;BME280;56781;42.292;23.146;2022-10-26T05:00:53;96132.81;;;5.33;96.79
69570;BME280;56781;42.292;23.146;2022-10-26T05:03:21;96073.47;;;5.17;95.96
69570;BME280;56781;42.292;23.146;2022-10-26T05:05:48;96109.16;;;5.31;95.91
69570;BME280;56781;42.292;23.146;2022-10-26T05:08:15;96083.13;;;5.28;95.01
69570;BME280;56781;42.292;23.146;2022-10-26T05:10:46;96072.78;;;5.27;95.02
69570;BME280;56781;42.292;23.146;2022-10-26T05:13:13;96135.38;;;5.82;93.82
69570;BME280;56781;42.292;23.146;2022-10-26T05:15:41;96087.53;;;5.45;93.59
69570;BME280;56781;42.292;23.146;2022-10-26T05:18:08;96084.63;;;5.46;94.85
69570;BME280;56781;42.292;23.146;2022-10-26T05:20:36;96090.34;;;5.65;93.97
69570;BME280;56781;42.292;23.146;2022-10-26T05:23:06;96099.03;;;5.55;94.05
69570;BME280;56781;42.292;23.146;2022-10-26T05:25:37;96081.19;;;5.51;93.96
69570;BME280;56781;42.292;23.146;2022-10-26T05:28:06;96148.66;;;5.82;94.93
69570;BME280;56781;42.292;23.146;2022-10-26T05:30:35;96118.84;;;5.75;95.31
69570;BME280;56781;42.292;23.146;2022-10-26T05:33:02;96084.41;;;5.53;93.60
69570;BME280;56781;42.292;23.146;2022-10-26T05:35:30;96112.28;;;5.88;93.21
69570;BME280;56781;42.292;23.146;2022-10-26T05:37:57;96117.72;;;5.98;94.23
69570;BME280;56781;42.292;23.146;2022-10-26T05:40:25;96108.09;;;5.92;95.37
69570;BME280;56781;42.292;23.146;2022-10-26T05:42:52;96102.84;;;6.02;94.18
69570;BME280;56781;42.292;23.146;2022-10-26T05:45:25;96137.69;;;6.48;93.16
69570;BME280;56781;42.292;23.146;2022-10-26T05:47:52;96098.63;;;6.06;92.62
69570;BME280;56781;42.292;23.146;2022-10-26T05:50:25;96081.13;;;5.78;93.21
69570;BME280;56781;42.292;23.146;2022-10-26T05:52:52;96114.00;;;5.99;94.19
69570;BME280;56781;42.292;23.146;2022-10-26T05:55:19;96115.78;;;6.31;94.57
69570;BME280;56781;42.292;23.146;2022-10-26T05:57:46;96170.84;;;6.88;93.71
69570;BME280;56781;42.292;23.146;2022-10-26T06:00:18;96162.94;;;6.98;94.05
69570;BME280;56781;42.292;23.146;2022-10-26T06:02:49;96158.22;;;7.26;93.56
69570;BME280;56781;42.292;23.146;2022-10-26T06:05:25;96140.66;;;7.25;94.68
69570;BME280;56781;42.292;23.146;2022-10-26T06:07:53;96138.56;;;7.73;93.11
69570;BME280;56781;42.292;23.146;2022-10-26T06:10:21;96175.88;;;8.29;93.63
69570;BME280;56781;42.292;23.146;2022-10-26T06:12:50;96170.56;;;8.50;92.88
69570;BME280;56781;42.292;23.146;2022-10-26T06:15:19;96188.59;;;8.88;92.42
69570;BME280;56781;42.292;23.146;2022-10-26T06:21:22;96142.56;;;9.57;88.45
69570;BME280;56781;42.292;23.146;2022-10-26T06:32:24;96191.75;;;11.12;84.77
69570;BME280;56781;42.292;23.146;2022-10-26T06:38:19;96150.66;;;11.97;80.39
69570;BME280;56781;42.292;23.146;2022-10-26T06:40:58;96132.50;;;12.68;78.03
69570;BME280;56781;42.292;23.146;2022-10-26T06:43:40;96176.59;;;13.22;75.96
69570;BME280;56781;42.292;23.146;2022-10-26T06:54:50;96124.81;;;14.66;69.65
69570;BME280;56781;42.292;23.146;2022-10-26T06:57:22;96132.28;;;15.17;67.34
69570;BME280;56781;42.292;23.146;2022-10-26T06:59:55;96189.22;;;16.16;65.98
69570;BME280;56781;42.292;23.146;2022-10-26T07:02:23;96151.97;;;17.04;62.49
69570;BME280;56781;42.292;23.146;2022-10-26T07:04:50;96103.91;;;18.14;57.59
69570;BME280;56781;42.292;23.146;2022-10-26T07:07:24;96137.31;;;19.10;54.33
69570;BME280;56781;42.292;23.146;2022-10-26T07:09:52;96156.91;;;20.49;51.17
69570;BME280;56781;42.292;23.146;2022-10-26T07:12:19;96123.94;;;21.45;48.11
69570;BME280;56781;42.292;23.146;2022-10-26T07:14:49;96161.63;;;22.33;46.32
69570;BME280;56781;42.292;23.146;2022-10-26T07:17:15;96156.47;;;22.71;44.54
69570;BME280;56781;42.292;23.146;2022-10-26T07:19:42;96135.06;;;23.19;43.59
69570;BME280;56781;42.292;23.146;2022-10-26T07:22:10;96135.41;;;23.40;42.54
69570;BME280;56781;42.292;23.146;2022-10-26T07:24:38;96100.81;;;23.78;41.62
69570;BME280;56781;42.292;23.146;2022-10-26T07:27:05;96086.84;;;23.30;42.67
69570;BME280;56781;42.292;23.146;2022-10-26T07:29:35;96141.38;;;23.50;42.16
69570;BME280;56781;42.292;23.146;2022-10-26T07:32:02;96143.81;;;23.81;40.66
69570;BME280;56781;42.292;23.146;2022-10-26T07:34:29;96138.03;;;24.20;40.41
69570;BME280;56781;42.292;23.146;2022-10-26T07:36:58;96142.31;;;23.61;42.00
69570;BME280;56781;42.292;23.146;2022-10-26T07:39:25;96135.84;;;23.42;42.36
69570;BME280;56781;42.292;23.146;2022-10-26T07:41:52;96143.59;;;22.71;44.71
69570;BME280;56781;42.292;23.146;2022-10-26T07:44:19;96142.72;;;22.64;44.47
69570;BME280;56781;42.292;23.146;2022-10-26T07:46:46;96106.41;;;22.40;45.65
69570;BME280;56781;42.292;23.146;2022-10-26T07:49:13;96136.88;;;22.42;45.43
69570;BME280;56781;42.292;23.146;2022-10-26T07:51:44;96133.75;;;22.05;47.12
69570;BME280;56781;42.292;23.146;2022-10-26T07:54:11;96145.88;;;22.46;46.00
69570;BME280;56781;42.292;23.146;2022-10-26T07:56:38;96139.84;;;22.99;44.84
69570;BME280;56781;42.292;23.146;2022-10-26T07:59:05;96138.16;;;22.94;44.08
69570;BME280;56781;42.292;23.146;2022-10-26T08:01:32;96108.22;;;23.25;43.49
69570;BME280;56781;42.292;23.146;2022-10-26T08:03:59;96150.72;;;23.22;44.28
69570;BME280;56781;42.292;23.146;2022-10-26T08:06:26;96134.34;;;23.22;43.75
69570;BME280;56781;42.292;23.146;2022-10-26T08:08:53;96089.81;;;22.72;44.32
69570;BME280;56781;42.292;23.146;2022-10-26T08:11:20;96058.78;;;21.95;46.63
69570;BME280;56781;42.292;23.146;2022-10-26T08:13:46;96136.13;;;22.06;47.53
69570;BME280;56781;42.292;23.146;2022-10-26T08:16:17;96054.13;;;21.21;48.08
69570;BME280;56781;42.292;23.146;2022-10-26T08:18:47;96141.88;;;21.31;49.46
69570;BME280;56781;42.292;23.146;2022-10-26T08:21:14;96130.03;;;20.91;50.65
69570;BME280;56781;42.292;23.146;2022-10-26T08:23:51;96108.97;;;20.28;51.27
69570;BME280;56781;42.292;23.146;2022-10-26T08:26:18;96109.13;;;20.20;52.52
69570;BME280;56781;42.292;23.146;2022-10-26T08:28:47;96138.69;;;20.21;51.30
69570;BME280;56781;42.292;23.146;2022-10-26T08:31:14;96078.06;;;19.64;51.21
69570;BME280;56781;42.292;23.146;2022-10-26T08:33:41;96115.09;;;19.69;51.27
69570;BME280;56781;42.292;23.146;2022-10-26T08:36:11;96122.34;;;19.40;51.29
69570;BME280;56781;42.292;23.146;2022-10-26T08:38:47;96118.75;;;19.24;51.27
69570;BME280;56781;42.292;23.146;2022-10-26T08:41:14;96148.34;;;19.54;52.64
69570;BME280;56781;42.292;23.146;2022-10-26T08:43:48;96107.19;;;19.39;52.14
69570;BME280;56781;42.292;23.146;2022-10-26T08:46:29;96164.66;;;19.54;53.07
69570;BME280;56781;42.292;23.146;2022-10-26T08:49:07;96102.38;;;19.33;52.27
69570;BME280;56781;42.292;23.146;2022-10-26T08:51:39;96082.56;;;19.20;52.51
69570;BME280;56781;42.292;23.146;2022-10-26T08:54:34;96145.44;;;19.46;51.98
69570;BME280;56781;42.292;23.146;2022-10-26T08:57:29;96141.81;;;19.42;51.02
69570;BME280;56781;42.292;23.146;2022-10-26T09:02:55;96147.22;;;19.67;51.69
69570;BME280;56781;42.292;23.146;2022-10-26T09:05:39;96128.63;;;19.81;50.31
69570;BME280;56781;42.292;23.146;2022-10-26T09:11:27;96118.78;;;20.17;49.54
69570;BME280;56781;42.292;23.146;2022-10-26T09:14:14;96116.78;;;20.30;48.25
69570;BME280;56781;42.292;23.146;2022-10-26T09:24:48;96094.06;;;20.66;46.55
69570;BME280;56781;42.292;23.146;2022-10-26T09:27:25;96101.19;;;20.43;46.75
69570;BME280;56781;42.292;23.146;2022-10-26T09:29:58;96073.44;;;20.21;48.39
69570;BME280;56781;42.292;23.146;2022-10-26T09:32:39;96106.06;;;20.65;47.99
69570;BME280;56781;42.292;23.146;2022-10-26T09:37:53;96108.09;;;20.68;46.86
69570;BME280;56781;42.292;23.146;2022-10-26T09:40:28;96069.91;;;20.65;45.51
69570;BME280;56781;42.292;23.146;2022-10-26T09:43:01;96126.53;;;21.07;46.30
69570;BME280;56781;42.292;23.146;2022-10-26T09:45:48;96125.94;;;21.33;46.13
69570;BME280;56781;42.292;23.146;2022-10-26T09:48:24;96066.25;;;21.08;45.20
69570;BME280;56781;42.292;23.146;2022-10-26T09:50:53;96099.66;;;21.56;45.63
69570;BME280;56781;42.292;23.146;2022-10-26T09:53:30;96101.88;;;21.35;45.25
69570;BME280;56781;42.292;23.146;2022-10-26T09:56:07;96120.63;;;21.72;45.67
69570;BME280;56781;42.292;23.146;2022-10-26T09:58:39;96091.28;;;21.84;45.77
69570;BME280;56781;42.292;23.146;2022-10-26T10:01:20;96075.59;;;21.78;44.19
69570;BME280;56781;42.292;23.146;2022-10-26T10:03:47;96068.84;;;21.72;44.27
69570;BME280;56781;42.292;23.146;2022-10-26T10:06:18;96039.50;;;21.65;44.06
69570;BME280;56781;42.292;23.146;2022-10-26T10:09:05;96094.63;;;22.17;42.83
69570;BME280;56781;42.292;23.146;2022-10-26T10:11:51;96071.28;;;21.96;43.00
69570;BME280;56781;42.292;23.146;2022-10-26T10:16:57;96084.03;;;22.11;39.72
69570;BME280;56781;42.292;23.146;2022-10-26T10:19:33;96089.66;;;22.19;40.45
69570;BME280;56781;42.292;23.146;2022-10-26T10:25:00;96012.13;;;22.00;39.21
69570;BME280;56781;42.292;23.146;2022-10-26T10:27:29;96061.16;;;22.39;39.24
69570;BME280;56781;42.292;23.146;2022-10-26T10:30:18;96017.28;;;22.25;38.20
69570;BME280;56781;42.292;23.146;2022-10-26T10:33:03;96067.78;;;22.38;39.52
69570;BME280;56781;42.292;23.146;2022-10-26T10:35:30;96028.28;;;22.28;39.36
69570;BME280;56781;42.292;23.146;2022-10-26T10:37:58;96012.94;;;22.43;38.35
69570;BME280;56781;42.292;23.146;2022-10-26T10:40:27;96041.91;;;22.51;38.36
69570;BME280;56781;42.292;23.146;2022-10-26T10:43:22;96029.59;;;22.38;38.20
69570;BME280;56781;42.292;23.146;2022-10-26T10:45:52;96034.19;;;22.57;38.73
69570;BME280;56781;42.292;23.146;2022-10-26T10:48:26;96058.88;;;22.41;38.83
69570;BME280;56781;42.292;23.146;2022-10-26T10:51:04;96023.69;;;22.36;38.85
69570;BME280;56781;42.292;23.146;2022-10-26T10:56:18;96009.66;;;22.34;37.62
69570;BME280;56781;42.292;23.146;2022-10-26T11:01:26;96018.25;;;22.36;37.47
69570;BME280;56781;42.292;23.146;2022-10-26T11:06:58;95996.34;;;22.55;37.21
69570;BME280;56781;42.292;23.146;2022-10-26T11:09:29;96010.97;;;22.67;36.45
69570;BME280;56781;42.292;23.146;2022-10-26T11:12:02;96029.59;;;23.11;37.14
69570;BME280;56781;42.292;23.146;2022-10-26T11:14:44;95976.75;;;22.73;38.09
69570;BME280;56781;42.292;23.146;2022-10-26T11:17:24;96002.13;;;22.50;36.19
69570;BME280;56781;42.292;23.146;2022-10-26T11:20:05;96016.84;;;22.69;38.72
69570;BME280;56781;42.292;23.146;2022-10-26T11:25:31;96038.88;;;23.06;36.56
69570;BME280;56781;42.292;23.146;2022-10-26T11:28:03;96003.50;;;22.90;37.12
69570;BME280;56781;42.292;23.146;2022-10-26T11:30:33;95992.59;;;22.64;37.32
69570;BME280;56781;42.292;23.146;2022-10-26T11:33:13;95990.34;;;22.69;37.85
69570;BME280;56781;42.292;23.146;2022-10-26T11:35:43;96025.25;;;22.83;37.34
69570;BME280;56781;42.292;23.146;2022-10-26T11:41:24;96006.13;;;23.06;37.39
69570;BME280;56781;42.292;23.146;2022-10-26T11:44:04;96000.63;;;23.03;35.95
69570;BME280;56781;42.292;23.146;2022-10-26T11:49:33;96006.66;;;23.45;36.31
69570;BME280;56781;42.292;23.146;2022-10-26T11:52:27;96017.81;;;23.33;35.68
69570;BME280;56781;42.292;23.146;2022-10-26T11:54:58;96015.03;;;23.30;35.02
69570;BME280;56781;42.292;23.146;2022-10-26T11:57:35;96019.88;;;23.43;35.56
69570;BME280;56781;42.292;23.146;2022-10-26T12:02:37;95975.25;;;23.32;33.94
69570;BME280;56781;42.292;23.146;2022-10-26T12:05:08;95977.25;;;23.35;34.14
69570;BME280;56781;42.292;23.146;2022-10-26T12:08:04;95976.00;;;23.29;36.15
69570;BME280;56781;42.292;23.146;2022-10-26T12:10:34;95998.50;;;23.19;35.60
69570;BME280;56781;42.292;23.146;2022-10-26T12:15:35;95963.03;;;23.22;34.78
69570;BME280;56781;42.292;23.146;2022-10-26T12:18:56;95996.53;;;23.50;35.02
69570;BME280;56781;42.292;23.146;2022-10-26T12:21:28;95980.28;;;23.30;35.94
69570;BME280;56781;42.292;23.146;2022-10-26T12:24:00;95943.25;;;23.03;35.33
69570;BME280;56781;42.292;23.146;2022-10-26T12:34:10;95964.63;;;23.23;35.80
69570;BME280;56781;42.292;23.146;2022-10-26T12:39:35;95966.03;;;23.14;35.38
69570;BME280;56781;42.292;23.146;2022-10-26T12:42:09;95987.59;;;23.53;36.19
69570;BME280;56781;42.292;23.146;2022-10-26T12:52:48;95954.81;;;23.22;34.86
69570;BME280;56781;42.292;23.146;2022-10-26T13:00:40;95966.00;;;23.40;35.37
69570;BME280;56781;42.292;23.146;2022-10-26T13:06:13;95978.69;;;23.59;35.62
69570;BME280;56781;42.292;23.146;2022-10-26T13:08:49;95983.72;;;23.54;36.29
69570;BME280;56781;42.292;23.146;2022-10-26T13:11:33;95976.41;;;23.61;34.87
69570;BME280;56781;42.292;23.146;2022-10-26T13:14:06;95985.28;;;23.55;35.85
69570;BME280;56781;42.292;23.146;2022-10-26T13:16:34;95984.47;;;23.51;35.65
69570;BME280;56781;42.292;23.146;2022-10-26T13:19:01;95942.88;;;23.34;34.49
69570;BME280;56781;42.292;23.146;2022-10-26T13:21:28;95985.53;;;23.42;36.33
69570;BME280;56781;42.292;23.146;2022-10-26T13:23:59;95949.94;;;23.05;34.79
69570;BME280;56781;42.292;23.146;2022-10-26T13:32:47;95858.66;;;22.49;35.41
69570;BME280;56781;42.292;23.146;2022-10-26T13:35:16;95937.53;;;22.85;35.62
69570;BME280;56781;42.292;23.146;2022-10-26T13:37:47;95978.94;;;23.17;35.96
69570;BME280;56781;42.292;23.146;2022-10-26T13:40:18;95985.97;;;23.18;36.14
69570;BME280;56781;42.292;23.146;2022-10-26T13:43:02;95944.97;;;22.88;36.49
69570;BME280;56781;42.292;23.146;2022-10-26T13:45:48;95920.16;;;22.70;36.18
69570;BME280;56781;42.292;23.146;2022-10-26T13:50:55;95932.19;;;22.65;37.28
69570;BME280;56781;42.292;23.146;2022-10-26T13:53:33;95937.16;;;22.60;36.57
69570;BME280;56781;42.292;23.146;2022-10-26T13:56:34;95948.03;;;22.56;38.81
69570;BME280;56781;42.292;23.146;2022-10-26T13:59:07;95979.91;;;22.75;38.18
69570;BME280;56781;42.292;23.146;2022-10-26T14:01:35;95983.03;;;22.77;36.39
69570;BME280;56781;42.292;23.146;2022-10-26T14:04:17;95949.19;;;22.55;37.39
69570;BME280;56781;42.292;23.146;2022-10-26T14:06:51;95984.50;;;22.71;38.57
69570;BME280;56781;42.292;23.146;2022-10-26T14:09:19;95982.00;;;22.59;39.29
69570;BME280;56781;42.292;23.146;2022-10-26T14:11:52;95984.91;;;22.46;38.56
69570;BME280;56781;42.292;23.146;2022-10-26T14:14:31;95942.22;;;22.11;39.23
69570;BME280;56781;42.292;23.146;2022-10-26T14:16:59;95960.31;;;22.20;39.63
69570;BME280;56781;42.292;23.146;2022-10-26T14:19:35;95954.59;;;22.05;40.57
69570;BME280;56781;42.292;23.146;2022-10-26T14:22:03;95941.00;;;21.86;40.26
69570;BME280;56781;42.292;23.146;2022-10-26T14:24:32;95921.31;;;21.73;38.87
69570;BME280;56781;42.292;23.146;2022-10-26T14:27:18;95962.03;;;21.85;40.07
69570;BME280;56781;42.292;23.146;2022-10-26T14:29:46;95985.16;;;21.95;42.39
69570;BME280;56781;42.292;23.146;2022-10-26T14:32:33;95941.06;;;21.47;40.72
69570;BME280;56781;42.292;23.146;2022-10-26T14:35:02;95988.22;;;21.71;40.11
69570;BME280;56781;42.292;23.146;2022-10-26T14:37:38;95997.56;;;21.69;40.23
69570;BME280;56781;42.292;23.146;2022-10-26T14:40:17;95995.91;;;21.65;39.93
69570;BME280;56781;42.292;23.146;2022-10-26T14:42:48;95967.97;;;21.33;40.08
69570;BME280;56781;42.292;23.146;2022-10-26T14:45:31;95923.34;;;20.98;40.79
69570;BME280;56781;42.292;23.146;2022-10-26T14:51:00;95983.53;;;21.13;41.09
69570;BME280;56781;42.292;23.146;2022-10-26T14:53:39;95970.25;;;20.92;41.55
69570;BME280;56781;42.292;23.146;2022-10-26T14:56:21;95997.97;;;20.97;41.19
69570;BME280;56781;42.292;23.146;2022-10-26T14:58:50;95960.84;;;20.54;41.82
69570;BME280;56781;42.292;23.146;2022-10-26T15:03:56;95963.97;;;20.24;41.96
69570;BME280;56781;42.292;23.146;2022-10-26T15:08:58;95915.22;;;19.68;41.79
69570;BME280;56781;42.292;23.146;2022-10-26T15:11:26;95983.00;;;19.92;42.42
69570;BME280;56781;42.292;23.146;2022-10-26T15:13:55;95949.84;;;19.59;42.66
69570;BME280;56781;42.292;23.146;2022-10-26T15:16:27;96017.22;;;19.81;42.40
69570;BME280;56781;42.292;23.146;2022-10-26T15:18:58;95991.91;;;19.65;42.83
69570;BME280;56781;42.292;23.146;2022-10-26T15:21:30;95957.66;;;19.32;42.29
69570;BME280;56781;42.292;23.146;2022-10-26T15:24:00;96029.72;;;19.70;42.28
69570;BME280;56781;42.292;23.146;2022-10-26T15:26:27;96002.88;;;19.40;42.05
69570;BME280;56781;42.292;23.146;2022-10-26T15:28:55;95984.84;;;19.20;42.59